Terminal Aerodrome Forecast
Issued by NWS

Home | Current Version | Previous Version | Graphics & Text | Print | Product List | Glossary On
Versions: 1 2 3 4 5 6 7 8 9 10 11 12 13 14 15 16 17 18 19 20 21 22 23 24 25 26
000
FTUS43 KMPX 230700 AAA
TAFRNH
TAF AMD
KRNH 230710Z 2307/2406 16005KT 1/2SM FG OVC004
     FM231000 17005KT 3SM BR SCT005 OVC019
     FM231500 24005KT 6SM BR OVC080
     FM232200 31007KT 4SM -RA BR OVC006
     FM240500 32013G23KT 1 1/2SM -SN BR OVC005=

USA.gov is the U.S. government's official web portal to all federal, state and local government web resources and services.